sensor_id;sensor_type;location;lat;lon;timestamp;P1;durP1;ratioP1;P2;durP2;ratioP2
23206;SDS011;11773;52.570;13.052;2023-04-03T00:01:42;0.27;;;0.27;;
23206;SDS011;11773;52.570;13.052;2023-04-03T00:04:11;1.17;;;0.40;;
23206;SDS011;11773;52.570;13.052;2023-04-03T00:06:42;0.50;;;0.40;;
23206;SDS011;11773;52.570;13.052;2023-04-03T00:09:11;0.70;;;0.40;;
23206;SDS011;11773;52.570;13.052;2023-04-03T00:11:48;0.13;;;0.13;;
23206;SDS011;11773;52.570;13.052;2023-04-03T00:14:17;0.50;;;0.40;;
23206;SDS011;11773;52.570;13.052;2023-04-03T00:16:47;0.60;;;0.50;;
23206;SDS011;11773;52.570;13.052;2023-04-03T00:19:16;0.47;;;0.43;;
23206;SDS011;11773;52.570;13.052;2023-04-03T00:21:46;1.90;;;0.60;;
23206;SDS011;11773;52.570;13.052;2023-04-03T00:24:15;0.60;;;0.30;;
23206;SDS011;11773;52.570;13.052;2023-04-03T00:26:45;0.93;;;0.40;;
23206;SDS011;11773;52.570;13.052;2023-04-03T00:29:14;0.40;;;0.33;;
23206;SDS011;11773;52.570;13.052;2023-04-03T00:31:44;0.67;;;0.50;;
23206;SDS011;11773;52.570;13.052;2023-04-03T00:34:13;0.70;;;0.50;;
23206;SDS011;11773;52.570;13.052;2023-04-03T00:36:43;0.30;;;0.30;;
23206;SDS011;11773;52.570;13.052;2023-04-03T00:39:12;0.50;;;0.50;;
23206;SDS011;11773;52.570;13.052;2023-04-03T00:41:42;0.20;;;0.20;;
23206;SDS011;11773;52.570;13.052;2023-04-03T00:44:19;0.77;;;0.50;;
23206;SDS011;11773;52.570;13.052;2023-04-03T00:46:50;0.47;;;0.30;;
23206;SDS011;11773;52.570;13.052;2023-04-03T00:49:20;0.30;;;0.30;;
23206;SDS011;11773;52.570;13.052;2023-04-03T00:51:50;0.30;;;0.30;;
23206;SDS011;11773;52.570;13.052;2023-04-03T00:54:19;0.30;;;0.30;;
23206;SDS011;11773;52.570;13.052;2023-04-03T00:56:50;0.30;;;0.20;;
23206;SDS011;11773;52.570;13.052;2023-04-03T00:59:24;0.30;;;0.30;;
23206;SDS011;11773;52.570;13.052;2023-04-03T01:02:00;0.87;;;0.40;;
23206;SDS011;11773;52.570;13.052;2023-04-03T01:04:32;0.30;;;0.30;;
23206;SDS011;11773;52.570;13.052;2023-04-03T01:07:09;0.40;;;0.33;;
23206;SDS011;11773;52.570;13.052;2023-04-03T01:09:45;0.47;;;0.40;;
23206;SDS011;11773;52.570;13.052;2023-04-03T01:12:20;0.23;;;0.23;;
23206;SDS011;11773;52.570;13.052;2023-04-03T01:15:00;0.30;;;0.30;;
23206;SDS011;11773;52.570;13.052;2023-04-03T01:17:42;0.23;;;0.23;;
23206;SDS011;11773;52.570;13.052;2023-04-03T01:25:51;0.37;;;0.20;;
23206;SDS011;11773;52.570;13.052;2023-04-03T01:28:24;0.20;;;0.20;;
23206;SDS011;11773;52.570;13.052;2023-04-03T01:33:57;0.30;;;0.30;;
23206;SDS011;11773;52.570;13.052;2023-04-03T01:36:28;0.70;;;0.40;;
23206;SDS011;11773;52.570;13.052;2023-04-03T01:38:59;0.20;;;0.20;;
23206;SDS011;11773;52.570;13.052;2023-04-03T01:41:30;0.53;;;0.30;;
23206;SDS011;11773;52.570;13.052;2023-04-03T01:43:59;0.30;;;0.30;;
23206;SDS011;11773;52.570;13.052;2023-04-03T01:46:29;0.30;;;0.30;;
23206;SDS011;11773;52.570;13.052;2023-04-03T01:48:59;0.20;;;0.20;;
23206;SDS011;11773;52.570;13.052;2023-04-03T01:51:29;0.33;;;0.33;;
23206;SDS011;11773;52.570;13.052;2023-04-03T01:54:00;0.30;;;0.30;;
23206;SDS011;11773;52.570;13.052;2023-04-03T01:56:29;0.30;;;0.30;;
23206;SDS011;11773;52.570;13.052;2023-04-03T01:58:59;0.27;;;0.27;;
23206;SDS011;11773;52.570;13.052;2023-04-03T02:01:28;0.27;;;0.27;;
23206;SDS011;11773;52.570;13.052;2023-04-03T02:03:58;0.30;;;0.30;;
23206;SDS011;11773;52.570;13.052;2023-04-03T02:06:27;0.23;;;0.23;;
23206;SDS011;11773;52.570;13.052;2023-04-03T02:08:57;0.23;;;0.23;;
23206;SDS011;11773;52.570;13.052;2023-04-03T02:11:26;0.30;;;0.30;;
23206;SDS011;11773;52.570;13.052;2023-04-03T02:13:56;0.40;;;0.40;;
23206;SDS011;11773;52.570;13.052;2023-04-03T02:16:25;0.20;;;0.20;;
23206;SDS011;11773;52.570;13.052;2023-04-03T02:18:55;0.20;;;0.20;;
23206;SDS011;11773;52.570;13.052;2023-04-03T02:21:25;0.50;;;0.30;;
23206;SDS011;11773;52.570;13.052;2023-04-03T02:23:55;0.33;;;0.30;;
23206;SDS011;11773;52.570;13.052;2023-04-03T02:26:24;0.30;;;0.30;;
23206;SDS011;11773;52.570;13.052;2023-04-03T02:28:54;0.30;;;0.30;;
23206;SDS011;11773;52.570;13.052;2023-04-03T02:31:23;1.23;;;0.50;;
23206;SDS011;11773;52.570;13.052;2023-04-03T02:33:53;0.27;;;0.27;;
23206;SDS011;11773;52.570;13.052;2023-04-03T02:36:23;0.30;;;0.30;;
23206;SDS011;11773;52.570;13.052;2023-04-03T02:38:52;0.40;;;0.40;;
23206;SDS011;11773;52.570;13.052;2023-04-03T02:41:22;0.20;;;0.20;;
23206;SDS011;11773;52.570;13.052;2023-04-03T02:43:53;0.43;;;0.43;;
23206;SDS011;11773;52.570;13.052;2023-04-03T02:46:23;0.30;;;0.30;;
23206;SDS011;11773;52.570;13.052;2023-04-03T02:48:52;0.30;;;0.30;;
23206;SDS011;11773;52.570;13.052;2023-04-03T02:51:22;0.30;;;0.30;;
23206;SDS011;11773;52.570;13.052;2023-04-03T02:53:52;0.30;;;0.30;;
23206;SDS011;11773;52.570;13.052;2023-04-03T02:56:21;0.40;;;0.40;;
23206;SDS011;11773;52.570;13.052;2023-04-03T02:58:51;0.20;;;0.20;;
23206;SDS011;11773;52.570;13.052;2023-04-03T03:01:21;0.20;;;0.20;;
23206;SDS011;11773;52.570;13.052;2023-04-03T03:03:51;0.27;;;0.20;;
23206;SDS011;11773;52.570;13.052;2023-04-03T03:06:20;0.30;;;0.30;;
23206;SDS011;11773;52.570;13.052;2023-04-03T03:08:49;0.40;;;0.40;;
23206;SDS011;11773;52.570;13.052;2023-04-03T03:11:19;0.40;;;0.40;;
23206;SDS011;11773;52.570;13.052;2023-04-03T03:13:49;0.30;;;0.30;;
23206;SDS011;11773;52.570;13.052;2023-04-03T03:16:18;0.27;;;0.27;;
23206;SDS011;11773;52.570;13.052;2023-04-03T03:18:48;0.30;;;0.30;;
23206;SDS011;11773;52.570;13.052;2023-04-03T03:21:17;0.40;;;0.40;;
23206;SDS011;11773;52.570;13.052;2023-04-03T03:23:47;0.33;;;0.30;;
23206;SDS011;11773;52.570;13.052;2023-04-03T03:26:16;0.30;;;0.30;;
23206;SDS011;11773;52.570;13.052;2023-04-03T03:28:46;0.40;;;0.40;;
23206;SDS011;11773;52.570;13.052;2023-04-03T03:31:15;0.20;;;0.20;;
23206;SDS011;11773;52.570;13.052;2023-04-03T03:33:45;0.20;;;0.20;;
23206;SDS011;11773;52.570;13.052;2023-04-03T03:36:15;0.20;;;0.20;;
23206;SDS011;11773;52.570;13.052;2023-04-03T03:38:45;0.30;;;0.30;;
23206;SDS011;11773;52.570;13.052;2023-04-03T03:41:14;0.40;;;0.40;;
23206;SDS011;11773;52.570;13.052;2023-04-03T03:43:44;0.23;;;0.20;;
23206;SDS011;11773;52.570;13.052;2023-04-03T03:46:13;0.40;;;0.30;;
23206;SDS011;11773;52.570;13.052;2023-04-03T03:48:43;0.30;;;0.30;;
23206;SDS011;11773;52.570;13.052;2023-04-03T03:51:12;0.20;;;0.20;;
23206;SDS011;11773;52.570;13.052;2023-04-03T03:53:42;0.20;;;0.20;;
23206;SDS011;11773;52.570;13.052;2023-04-03T03:56:11;0.23;;;0.23;;
23206;SDS011;11773;52.570;13.052;2023-04-03T03:58:41;0.30;;;0.30;;
23206;SDS011;11773;52.570;13.052;2023-04-03T04:01:10;0.20;;;0.20;;
23206;SDS011;11773;52.570;13.052;2023-04-03T04:03:40;0.20;;;0.20;;
23206;SDS011;11773;52.570;13.052;2023-04-03T04:06:10;1.50;;;0.60;;
23206;SDS011;11773;52.570;13.052;2023-04-03T04:08:39;0.23;;;0.23;;
23206;SDS011;11773;52.570;13.052;2023-04-03T04:11:09;0.20;;;0.20;;
23206;SDS011;11773;52.570;13.052;2023-04-03T04:13:39;0.23;;;0.23;;
23206;SDS011;11773;52.570;13.052;2023-04-03T04:16:08;0.30;;;0.30;;
23206;SDS011;11773;52.570;13.052;2023-04-03T04:18:38;0.20;;;0.20;;
23206;SDS011;11773;52.570;13.052;2023-04-03T04:21:08;0.27;;;0.27;;
23206;SDS011;11773;52.570;13.052;2023-04-03T04:23:37;0.20;;;0.20;;
23206;SDS011;11773;52.570;13.052;2023-04-03T04:26:06;0.20;;;0.20;;
23206;SDS011;11773;52.570;13.052;2023-04-03T04:28:36;0.30;;;0.30;;
23206;SDS011;11773;52.570;13.052;2023-04-03T04:31:05;0.40;;;0.40;;
23206;SDS011;11773;52.570;13.052;2023-04-03T04:33:35;0.30;;;0.30;;
23206;SDS011;11773;52.570;13.052;2023-04-03T04:36:05;0.20;;;0.20;;
23206;SDS011;11773;52.570;13.052;2023-04-03T04:38:35;0.20;;;0.20;;
23206;SDS011;11773;52.570;13.052;2023-04-03T04:41:05;0.27;;;0.27;;
23206;SDS011;11773;52.570;13.052;2023-04-03T04:43:35;0.20;;;0.20;;
23206;SDS011;11773;52.570;13.052;2023-04-03T04:46:06;0.20;;;0.20;;
23206;SDS011;11773;52.570;13.052;2023-04-03T04:48:39;0.30;;;0.30;;
23206;SDS011;11773;52.570;13.052;2023-04-03T04:51:09;0.20;;;0.20;;
23206;SDS011;11773;52.570;13.052;2023-04-03T04:53:39;0.30;;;0.30;;
23206;SDS011;11773;52.570;13.052;2023-04-03T04:56:09;0.20;;;0.20;;
23206;SDS011;11773;52.570;13.052;2023-04-03T04:58:39;0.50;;;0.50;;
23206;SDS011;11773;52.570;13.052;2023-04-03T05:01:09;0.20;;;0.20;;
23206;SDS011;11773;52.570;13.052;2023-04-03T05:03:39;0.40;;;0.40;;
23206;SDS011;11773;52.570;13.052;2023-04-03T05:06:09;0.20;;;0.20;;
23206;SDS011;11773;52.570;13.052;2023-04-03T05:08:38;0.20;;;0.20;;
23206;SDS011;11773;52.570;13.052;2023-04-03T05:11:08;0.40;;;0.40;;
23206;SDS011;11773;52.570;13.052;2023-04-03T05:13:38;0.20;;;0.20;;
23206;SDS011;11773;52.570;13.052;2023-04-03T05:16:07;0.30;;;0.30;;
23206;SDS011;11773;52.570;13.052;2023-04-03T05:18:37;0.30;;;0.30;;
23206;SDS011;11773;52.570;13.052;2023-04-03T05:21:07;0.30;;;0.30;;
23206;SDS011;11773;52.570;13.052;2023-04-03T05:23:36;0.33;;;0.30;;
23206;SDS011;11773;52.570;13.052;2023-04-03T05:26:06;0.30;;;0.30;;
23206;SDS011;11773;52.570;13.052;2023-04-03T05:28:35;0.40;;;0.40;;
23206;SDS011;11773;52.570;13.052;2023-04-03T05:31:05;0.30;;;0.30;;
23206;SDS011;11773;52.570;13.052;2023-04-03T05:33:34;0.47;;;0.47;;
23206;SDS011;11773;52.570;13.052;2023-04-03T05:36:04;0.40;;;0.40;;
23206;SDS011;11773;52.570;13.052;2023-04-03T05:38:34;0.57;;;0.57;;
23206;SDS011;11773;52.570;13.052;2023-04-03T05:41:04;0.37;;;0.37;;
23206;SDS011;11773;52.570;13.052;2023-04-03T05:43:34;0.60;;;0.53;;
23206;SDS011;11773;52.570;13.052;2023-04-03T05:46:14;0.60;;;0.60;;
23206;SDS011;11773;52.570;13.052;2023-04-03T05:48:45;0.80;;;0.40;;
23206;SDS011;11773;52.570;13.052;2023-04-03T05:51:22;0.40;;;0.40;;
23206;SDS011;11773;52.570;13.052;2023-04-03T05:53:49;0.50;;;0.40;;
23206;SDS011;11773;52.570;13.052;2023-04-03T05:56:23;0.20;;;0.20;;
23206;SDS011;11773;52.570;13.052;2023-04-03T05:58:53;0.33;;;0.33;;
23206;SDS011;11773;52.570;13.052;2023-04-03T06:01:23;0.40;;;0.40;;
23206;SDS011;11773;52.570;13.052;2023-04-03T06:03:53;0.50;;;0.30;;
23206;SDS011;11773;52.570;13.052;2023-04-03T06:06:23;0.37;;;0.37;;
23206;SDS011;11773;52.570;13.052;2023-04-03T06:08:53;0.53;;;0.50;;
23206;SDS011;11773;52.570;13.052;2023-04-03T06:11:22;0.80;;;0.50;;
23206;SDS011;11773;52.570;13.052;2023-04-03T06:13:52;0.60;;;0.33;;
23206;SDS011;11773;52.570;13.052;2023-04-03T06:16:22;0.43;;;0.43;;
23206;SDS011;11773;52.570;13.052;2023-04-03T06:18:52;2.30;;;0.60;;
23206;SDS011;11773;52.570;13.052;2023-04-03T06:21:22;0.40;;;0.40;;
23206;SDS011;11773;52.570;13.052;2023-04-03T06:23:51;1.07;;;0.70;;
23206;SDS011;11773;52.570;13.052;2023-04-03T06:26:21;1.07;;;0.80;;
23206;SDS011;11773;52.570;13.052;2023-04-03T06:28:50;1.00;;;0.70;;
23206;SDS011;11773;52.570;13.052;2023-04-03T06:31:20;2.13;;;1.00;;
23206;SDS011;11773;52.570;13.052;2023-04-03T06:33:50;1.27;;;0.80;;
23206;SDS011;11773;52.570;13.052;2023-04-03T06:36:19;2.20;;;1.00;;
23206;SDS011;11773;52.570;13.052;2023-04-03T06:38:49;1.43;;;0.70;;
23206;SDS011;11773;52.570;13.052;2023-04-03T06:41:19;1.33;;;0.70;;
23206;SDS011;11773;52.570;13.052;2023-04-03T06:43:49;1.30;;;0.60;;
23206;SDS011;11773;52.570;13.052;2023-04-03T06:46:20;0.97;;;0.70;;
23206;SDS011;11773;52.570;13.052;2023-04-03T06:48:51;1.33;;;0.70;;
23206;SDS011;11773;52.570;13.052;2023-04-03T06:51:25;2.23;;;1.00;;
23206;SDS011;11773;52.570;13.052;2023-04-03T06:53:57;0.90;;;0.80;;
23206;SDS011;11773;52.570;13.052;2023-04-03T06:56:28;1.50;;;0.70;;
23206;SDS011;11773;52.570;13.052;2023-04-03T06:58:57;1.67;;;0.70;;
23206;SDS011;11773;52.570;13.052;2023-04-03T07:01:28;0.80;;;0.50;;
23206;SDS011;11773;52.570;13.052;2023-04-03T07:03:58;2.27;;;1.10;;
23206;SDS011;11773;52.570;13.052;2023-04-03T07:06:28;1.47;;;0.70;;
23206;SDS011;11773;52.570;13.052;2023-04-03T07:08:58;1.00;;;0.87;;
23206;SDS011;11773;52.570;13.052;2023-04-03T07:11:29;0.90;;;0.70;;
23206;SDS011;11773;52.570;13.052;2023-04-03T07:13:59;2.30;;;1.20;;
23206;SDS011;11773;52.570;13.052;2023-04-03T07:16:28;0.50;;;0.50;;
23206;SDS011;11773;52.570;13.052;2023-04-03T07:18:58;1.07;;;0.63;;
23206;SDS011;11773;52.570;13.052;2023-04-03T07:21:28;1.17;;;0.70;;
23206;SDS011;11773;52.570;13.052;2023-04-03T07:23:58;1.27;;;0.50;;
23206;SDS011;11773;52.570;13.052;2023-04-03T07:26:29;0.63;;;0.60;;
23206;SDS011;11773;52.570;13.052;2023-04-03T07:28:58;1.57;;;0.80;;
23206;SDS011;11773;52.570;13.052;2023-04-03T07:31:28;0.70;;;0.60;;
23206;SDS011;11773;52.570;13.052;2023-04-03T07:33:58;1.43;;;0.80;;
23206;SDS011;11773;52.570;13.052;2023-04-03T07:36:27;1.80;;;0.83;;
23206;SDS011;11773;52.570;13.052;2023-04-03T07:38:59;1.77;;;1.00;;
23206;SDS011;11773;52.570;13.052;2023-04-03T07:41:28;2.27;;;1.00;;
23206;SDS011;11773;52.570;13.052;2023-04-03T07:43:58;1.07;;;0.80;;
23206;SDS011;11773;52.570;13.052;2023-04-03T07:46:27;0.50;;;0.50;;
23206;SDS011;11773;52.570;13.052;2023-04-03T07:48:57;0.63;;;0.57;;
23206;SDS011;11773;52.570;13.052;2023-04-03T07:51:26;0.70;;;0.60;;
23206;SDS011;11773;52.570;13.052;2023-04-03T07:53:56;2.07;;;0.77;;
23206;SDS011;11773;52.570;13.052;2023-04-03T07:56:26;0.80;;;0.60;;
23206;SDS011;11773;52.570;13.052;2023-04-03T07:58:56;0.70;;;0.60;;
23206;SDS011;11773;52.570;13.052;2023-04-03T08:01:26;0.60;;;0.57;;
23206;SDS011;11773;52.570;13.052;2023-04-03T08:03:57;1.20;;;0.67;;
23206;SDS011;11773;52.570;13.052;2023-04-03T08:06:27;0.63;;;0.43;;
23206;SDS011;11773;52.570;13.052;2023-04-03T08:09:02;0.50;;;0.50;;
23206;SDS011;11773;52.570;13.052;2023-04-03T08:11:32;0.40;;;0.40;;
23206;SDS011;11773;52.570;13.052;2023-04-03T08:14:03;0.97;;;0.60;;
23206;SDS011;11773;52.570;13.052;2023-04-03T08:16:33;0.97;;;0.60;;
23206;SDS011;11773;52.570;13.052;2023-04-03T08:19:03;0.70;;;0.50;;
23206;SDS011;11773;52.570;13.052;2023-04-03T08:21:36;0.77;;;0.50;;
23206;SDS011;11773;52.570;13.052;2023-04-03T08:24:05;0.60;;;0.40;;
23206;SDS011;11773;52.570;13.052;2023-04-03T08:26:36;1.13;;;0.60;;
23206;SDS011;11773;52.570;13.052;2023-04-03T08:29:09;1.13;;;0.67;;
23206;SDS011;11773;52.570;13.052;2023-04-03T08:31:38;1.50;;;0.73;;
23206;SDS011;11773;52.570;13.052;2023-04-03T08:34:08;0.63;;;0.60;;
23206;SDS011;11773;52.570;13.052;2023-04-03T08:36:38;0.93;;;0.60;;
23206;SDS011;11773;52.570;13.052;2023-04-03T08:39:08;0.40;;;0.40;;
23206;SDS011;11773;52.570;13.052;2023-04-03T08:41:42;1.80;;;0.97;;
23206;SDS011;11773;52.570;13.052;2023-04-03T08:44:15;0.87;;;0.83;;
23206;SDS011;11773;52.570;13.052;2023-04-03T08:47:09;0.83;;;0.70;;
23206;SDS011;11773;52.570;13.052;2023-04-03T08:52:51;1.47;;;0.77;;
23206;SDS011;11773;52.570;13.052;2023-04-03T08:55:30;1.20;;;0.60;;
23206;SDS011;11773;52.570;13.052;2023-04-03T08:58:20;1.47;;;0.50;;
23206;SDS011;11773;52.570;13.052;2023-04-03T09:03:47;1.17;;;0.63;;
23206;SDS011;11773;52.570;13.052;2023-04-03T09:06:25;1.30;;;0.50;;
23206;SDS011;11773;52.570;13.052;2023-04-03T09:12:11;1.13;;;1.00;;
23206;SDS011;11773;52.570;13.052;2023-04-03T09:15:22;1.30;;;1.20;;
23206;SDS011;11773;52.570;13.052;2023-04-03T09:17:53;2.33;;;1.53;;
23206;SDS011;11773;52.570;13.052;2023-04-03T09:20:41;2.03;;;1.93;;
23206;SDS011;11773;52.570;13.052;2023-04-03T09:26:21;3.37;;;1.20;;
23206;SDS011;11773;52.570;13.052;2023-04-03T09:29:00;1.30;;;0.80;;
23206;SDS011;11773;52.570;13.052;2023-04-03T09:31:36;1.63;;;0.90;;
23206;SDS011;11773;52.570;13.052;2023-04-03T09:34:18;0.63;;;0.63;;
23206;SDS011;11773;52.570;13.052;2023-04-03T09:36:57;3.33;;;1.30;;
23206;SDS011;11773;52.570;13.052;2023-04-03T09:39:49;1.30;;;0.90;;
23206;SDS011;11773;52.570;13.052;2023-04-03T09:42:23;1.20;;;0.70;;
23206;SDS011;11773;52.570;13.052;2023-04-03T09:47:34;1.10;;;0.80;;
23206;SDS011;11773;52.570;13.052;2023-04-03T09:52:50;1.10;;;0.70;;
23206;SDS011;11773;52.570;13.052;2023-04-03T09:55:21;0.50;;;0.50;;
23206;SDS011;11773;52.570;13.052;2023-04-03T09:57:58;1.07;;;0.60;;
23206;SDS011;11773;52.570;13.052;2023-04-03T10:00:35;0.60;;;0.50;;
23206;SDS011;11773;52.570;13.052;2023-04-03T10:03:24;0.90;;;0.60;;
23206;SDS011;11773;52.570;13.052;2023-04-03T10:05:59;1.13;;;0.73;;
23206;SDS011;11773;52.570;13.052;2023-04-03T10:08:30;0.73;;;0.63;;
23206;SDS011;11773;52.570;13.052;2023-04-03T10:11:09;0.43;;;0.43;;
23206;SDS011;11773;52.570;13.052;2023-04-03T10:13:59;1.20;;;0.70;;
23206;SDS011;11773;52.570;13.052;2023-04-03T10:16:44;1.07;;;0.57;;
23206;SDS011;11773;52.570;13.052;2023-04-03T10:19:24;0.53;;;0.50;;
23206;SDS011;11773;52.570;13.052;2023-04-03T10:28:00;0.90;;;0.67;;
23206;SDS011;11773;52.570;13.052;2023-04-03T10:30:48;0.93;;;0.67;;
23206;SDS011;11773;52.570;13.052;2023-04-03T10:34:00;0.67;;;0.60;;
23206;SDS011;11773;52.570;13.052;2023-04-03T10:36:38;0.97;;;0.70;;
23206;SDS011;11773;52.570;13.052;2023-04-03T10:39:47;1.20;;;0.67;;
23206;SDS011;11773;52.570;13.052;2023-04-03T10:42:34;0.73;;;0.57;;
23206;SDS011;11773;52.570;13.052;2023-04-03T10:48:07;2.10;;;0.70;;
23206;SDS011;11773;52.570;13.052;2023-04-03T10:50:44;1.03;;;0.70;;
23206;SDS011;11773;52.570;13.052;2023-04-03T10:56:48;1.00;;;0.90;;
23206;SDS011;11773;52.570;13.052;2023-04-03T10:59:27;0.40;;;0.30;;
23206;SDS011;11773;52.570;13.052;2023-04-03T11:02:27;0.83;;;0.60;;
23206;SDS011;11773;52.570;13.052;2023-04-03T11:05:06;1.70;;;0.80;;
23206;SDS011;11773;52.570;13.052;2023-04-03T11:08:10;0.70;;;0.57;;
23206;SDS011;11773;52.570;13.052;2023-04-03T11:11:03;1.03;;;0.43;;
23206;SDS011;11773;52.570;13.052;2023-04-03T11:13:41;0.53;;;0.40;;
23206;SDS011;11773;52.570;13.052;2023-04-03T11:16:23;1.23;;;0.80;;
23206;SDS011;11773;52.570;13.052;2023-04-03T11:22:14;0.73;;;0.63;;
23206;SDS011;11773;52.570;13.052;2023-04-03T11:24:52;0.80;;;0.70;;
23206;SDS011;11773;52.570;13.052;2023-04-03T11:27:25;1.87;;;0.80;;
23206;SDS011;11773;52.570;13.052;2023-04-03T11:30:00;1.13;;;0.80;;
23206;SDS011;11773;52.570;13.052;2023-04-03T11:32:53;0.70;;;0.70;;
23206;SDS011;11773;52.570;13.052;2023-04-03T11:35:41;0.57;;;0.40;;
23206;SDS011;11773;52.570;13.052;2023-04-03T11:38:21;0.50;;;0.50;;
23206;SDS011;11773;52.570;13.052;2023-04-03T11:41:05;1.30;;;0.60;;
23206;SDS011;11773;52.570;13.052;2023-04-03T11:43:42;1.33;;;0.40;;
23206;SDS011;11773;52.570;13.052;2023-04-03T11:47:10;0.93;;;0.70;;
23206;SDS011;11773;52.570;13.052;2023-04-03T12:11:15;0.60;;;0.40;;
23206;SDS011;11773;52.570;13.052;2023-04-03T12:14:03;1.50;;;0.80;;
23206;SDS011;11773;52.570;13.052;2023-04-03T12:19:32;1.23;;;0.83;;
23206;SDS011;11773;52.570;13.052;2023-04-03T12:22:10;1.27;;;0.40;;
23206;SDS011;11773;52.570;13.052;2023-04-03T12:24:43;1.23;;;0.80;;
23206;SDS011;11773;52.570;13.052;2023-04-03T12:27:28;1.20;;;0.63;;
23206;SDS011;11773;52.570;13.052;2023-04-03T12:32:56;0.63;;;0.50;;
23206;SDS011;11773;52.570;13.052;2023-04-03T12:35:37;1.17;;;0.77;;
23206;SDS011;11773;52.570;13.052;2023-04-03T12:38:25;0.73;;;0.60;;
23206;SDS011;11773;52.570;13.052;2023-04-03T12:41:36;0.90;;;0.80;;
23206;SDS011;11773;52.570;13.052;2023-04-03T12:44:17;0.40;;;0.40;;
23206;SDS011;11773;52.570;13.052;2023-04-03T12:47:22;0.77;;;0.50;;
23206;SDS011;11773;52.570;13.052;2023-04-03T12:50:16;0.50;;;0.50;;
23206;SDS011;11773;52.570;13.052;2023-04-03T12:53:02;0.93;;;0.60;;
23206;SDS011;11773;52.570;13.052;2023-04-03T12:55:41;1.47;;;0.73;;
23206;SDS011;11773;52.570;13.052;2023-04-03T12:58:21;0.90;;;0.50;;
23206;SDS011;11773;52.570;13.052;2023-04-03T13:01:00;0.78;;;0.53;;
23206;SDS011;11773;52.570;13.052;2023-04-03T13:03:32;0.90;;;0.70;;
23206;SDS011;11773;52.570;13.052;2023-04-03T13:06:05;0.73;;;0.50;;
23206;SDS011;11773;52.570;13.052;2023-04-03T13:08:35;0.70;;;0.70;;
23206;SDS011;11773;52.570;13.052;2023-04-03T13:11:11;0.97;;;0.63;;
23206;SDS011;11773;52.570;13.052;2023-04-03T13:13:53;1.67;;;0.60;;
23206;SDS011;11773;52.570;13.052;2023-04-03T13:16:27;0.80;;;0.60;;
23206;SDS011;11773;52.570;13.052;2023-04-03T13:18:57;1.90;;;0.90;;
23206;SDS011;11773;52.570;13.052;2023-04-03T13:21:30;0.87;;;0.60;;
23206;SDS011;11773;52.570;13.052;2023-04-03T13:24:02;0.80;;;0.73;;
23206;SDS011;11773;52.570;13.052;2023-04-03T13:26:35;1.30;;;0.70;;
23206;SDS011;11773;52.570;13.052;2023-04-03T13:29:06;0.40;;;0.40;;
23206;SDS011;11773;52.570;13.052;2023-04-03T13:31:41;0.93;;;0.77;;
23206;SDS011;11773;52.570;13.052;2023-04-03T13:34:16;2.10;;;0.83;;
23206;SDS011;11773;52.570;13.052;2023-04-03T13:39:29;0.80;;;0.70;;
23206;SDS011;11773;52.570;13.052;2023-04-03T13:42:15;0.57;;;0.50;;
23206;SDS011;11773;52.570;13.052;2023-04-03T13:44:48;0.50;;;0.50;;
23206;SDS011;11773;52.570;13.052;2023-04-03T13:47:38;0.93;;;0.57;;
23206;SDS011;11773;52.570;13.052;2023-04-03T13:52:59;0.90;;;0.60;;
23206;SDS011;11773;52.570;13.052;2023-04-03T13:55:31;0.70;;;0.47;;
23206;SDS011;11773;52.570;13.052;2023-04-03T13:58:54;0.87;;;0.50;;
23206;SDS011;11773;52.570;13.052;2023-04-03T14:03:40;0.40;;;0.40;;
23206;SDS011;11773;52.570;13.052;2023-04-03T14:06:15;0.50;;;0.50;;
23206;SDS011;11773;52.570;13.052;2023-04-03T14:08:45;0.50;;;0.50;;
23206;SDS011;11773;52.570;13.052;2023-04-03T14:11:20;0.70;;;0.50;;
23206;SDS011;11773;52.570;13.052;2023-04-03T14:14:01;0.50;;;0.50;;
23206;SDS011;11773;52.570;13.052;2023-04-03T14:16:32;0.60;;;0.50;;
23206;SDS011;11773;52.570;13.052;2023-04-03T14:19:06;0.70;;;0.70;;
23206;SDS011;11773;52.570;13.052;2023-04-03T14:21:37;0.57;;;0.57;;
23206;SDS011;11773;52.570;13.052;2023-04-03T14:24:07;1.03;;;0.60;;
23206;SDS011;11773;52.570;13.052;2023-04-03T14:26:38;0.63;;;0.50;;
23206;SDS011;11773;52.570;13.052;2023-04-03T14:29:09;0.57;;;0.57;;
23206;SDS011;11773;52.570;13.052;2023-04-03T14:31:41;0.67;;;0.60;;
23206;SDS011;11773;52.570;13.052;2023-04-03T14:34:13;1.07;;;0.60;;
23206;SDS011;11773;52.570;13.052;2023-04-03T14:36:44;0.93;;;0.50;;
23206;SDS011;11773;52.570;13.052;2023-04-03T14:39:16;0.67;;;0.60;;
23206;SDS011;11773;52.570;13.052;2023-04-03T14:41:47;0.57;;;0.37;;
23206;SDS011;11773;52.570;13.052;2023-04-03T14:44:16;0.60;;;0.50;;
23206;SDS011;11773;52.570;13.052;2023-04-03T14:46:46;1.80;;;1.03;;
23206;SDS011;11773;52.570;13.052;2023-04-03T14:49:21;1.57;;;1.10;;
23206;SDS011;11773;52.570;13.052;2023-04-03T14:51:56;1.53;;;1.07;;
23206;SDS011;11773;52.570;13.052;2023-04-03T14:54:26;0.97;;;0.83;;
23206;SDS011;11773;52.570;13.052;2023-04-03T14:56:57;0.87;;;0.50;;
23206;SDS011;11773;52.570;13.052;2023-04-03T14:59:28;0.57;;;0.50;;
23206;SDS011;11773;52.570;13.052;2023-04-03T15:01:59;0.40;;;0.40;;
23206;SDS011;11773;52.570;13.052;2023-04-03T15:04:29;0.50;;;0.50;;
23206;SDS011;11773;52.570;13.052;2023-04-03T15:06:59;0.63;;;0.57;;
23206;SDS011;11773;52.570;13.052;2023-04-03T15:09:29;0.67;;;0.60;;
23206;SDS011;11773;52.570;13.052;2023-04-03T15:11:58;0.20;;;0.20;;
23206;SDS011;11773;52.570;13.052;2023-04-03T15:14:28;2.20;;;1.90;;
23206;SDS011;11773;52.570;13.052;2023-04-03T15:16:59;2.50;;;2.13;;
23206;SDS011;11773;52.570;13.052;2023-04-03T15:19:31;2.53;;;1.83;;
23206;SDS011;11773;52.570;13.052;2023-04-03T15:22:08;3.53;;;2.20;;
23206;SDS011;11773;52.570;13.052;2023-04-03T15:24:43;3.10;;;2.40;;
23206;SDS011;11773;52.570;13.052;2023-04-03T15:27:13;1.77;;;1.40;;
23206;SDS011;11773;52.570;13.052;2023-04-03T15:29:43;0.97;;;0.87;;
23206;SDS011;11773;52.570;13.052;2023-04-03T15:32:13;0.73;;;0.70;;
23206;SDS011;11773;52.570;13.052;2023-04-03T15:34:42;0.80;;;0.60;;
23206;SDS011;11773;52.570;13.052;2023-04-03T15:37:12;0.40;;;0.40;;
23206;SDS011;11773;52.570;13.052;2023-04-03T15:39:41;0.50;;;0.50;;
23206;SDS011;11773;52.570;13.052;2023-04-03T15:42:11;0.50;;;0.50;;
23206;SDS011;11773;52.570;13.052;2023-04-03T15:44:41;0.50;;;0.50;;
23206;SDS011;11773;52.570;13.052;2023-04-03T15:47:10;0.50;;;0.50;;
23206;SDS011;11773;52.570;13.052;2023-04-03T15:49:40;0.47;;;0.47;;
23206;SDS011;11773;52.570;13.052;2023-04-03T15:52:10;1.67;;;1.30;;
23206;SDS011;11773;52.570;13.052;2023-04-03T15:54:41;1.03;;;0.93;;
23206;SDS011;11773;52.570;13.052;2023-04-03T15:57:10;0.67;;;0.60;;
23206;SDS011;11773;52.570;13.052;2023-04-03T15:59:40;0.63;;;0.50;;
23206;SDS011;11773;52.570;13.052;2023-04-03T16:02:10;0.42;;;0.42;;
23206;SDS011;11773;52.570;13.052;2023-04-03T16:04:41;0.40;;;0.37;;
23206;SDS011;11773;52.570;13.052;2023-04-03T16:07:10;0.40;;;0.40;;
23206;SDS011;11773;52.570;13.052;2023-04-03T16:09:40;0.80;;;0.60;;
23206;SDS011;11773;52.570;13.052;2023-04-03T16:12:09;0.87;;;0.70;;
23206;SDS011;11773;52.570;13.052;2023-04-03T16:14:39;0.63;;;0.50;;
23206;SDS011;11773;52.570;13.052;2023-04-03T16:17:08;0.30;;;0.30;;
23206;SDS011;11773;52.570;13.052;2023-04-03T16:19:38;1.17;;;0.50;;
23206;SDS011;11773;52.570;13.052;2023-04-03T16:22:07;0.60;;;0.50;;
23206;SDS011;11773;52.570;13.052;2023-04-03T16:24:37;1.23;;;0.60;;
23206;SDS011;11773;52.570;13.052;2023-04-03T16:27:07;0.40;;;0.40;;